Time;durP1;ratioP1;P1;durP2;ratioP2;P2;SDS_P1;SDS_P2;PMS_P1;PMS_P2;Temp;Humidity;BMP_temperature;BMP_pressure;BME280_temperature;BME280_humidity;BME280_pressure;Samples;Min_cycle;Max_cycle;Signal;HPM_P1;HPM_P2
2022/03/29 00:00:13;;;;;;;28.35;20.98;;;8.90;99.90;;;;;;5045556;28;20377;-43
2022/03/29 00:02:39;;;;;;;26.40;20.80;;;8.90;99.90;;;;;;5043659;28;20475;-42
2022/03/29 00:05:05;;;;;;;28.67;22.10;;;8.80;99.90;;;;;;5045340;28;20033;-44
2022/03/29 00:07:31;;;;;;;27.02;20.77;;;8.80;99.90;;;;;;5045235;28;20800;-42
2022/03/29 00:09:56;;;;;;;25.10;20.60;;;8.70;99.90;;;;;;5043759;28;20064;-41
2022/03/29 00:12:22;;;;;;;27.25;20.88;;;8.60;99.90;;;;;;5045633;28;20118;-42
2022/03/29 00:14:47;;;;;;;30.90;22.17;;;8.60;99.90;;;;;;5044361;28;20033;-42
2022/03/29 00:17:13;;;;;;;27.08;21.00;;;8.60;99.90;;;;;;5044826;28;20021;-41
2022/03/29 00:19:38;;;;;;;26.13;20.80;;;8.60;99.90;;;;;;5045150;28;20028;-41
2022/03/29 00:22:04;;;;;;;32.00;24.35;;;8.50;99.90;;;;;;5043870;28;20053;-42
2022/03/29 00:24:29;;;;;;;32.97;25.10;;;8.50;99.90;;;;;;5044028;28;20378;-42
2022/03/29 00:26:55;;;;;;;38.10;26.38;;;8.50;99.90;;;;;;5044811;28;20024;-41
2022/03/29 00:29:20;;;;;;;30.77;23.55;;;8.50;99.90;;;;;;5044074;28;20422;-42
2022/03/29 00:31:46;;;;;;;33.80;24.98;;;8.50;99.90;;;;;;5044115;28;20638;-41
2022/03/29 00:34:11;;;;;;;36.55;26.63;;;8.50;99.90;;;;;;5044879;28;20029;-42
2022/03/29 00:36:40;;;;;;;30.88;23.50;;;8.40;99.90;;;;;;5045177;28;20035;-42
2022/03/29 00:39:05;;;;;;;29.80;22.77;;;8.40;99.90;;;;;;5045091;28;20056;-42
2022/03/29 00:41:31;;;;;;;31.90;24.50;;;8.40;99.90;;;;;;5045321;28;20079;-42
2022/03/29 00:43:57;;;;;;;33.20;25.33;;;8.40;99.90;;;;;;5046649;28;20485;-40
2022/03/29 00:46:26;;;;;;;35.58;26.90;;;8.50;99.90;;;;;;5048070;28;20017;-42
2022/03/29 00:48:51;;;;;;;31.17;24.08;;;8.50;99.90;;;;;;5047453;28;20559;-41
2022/03/29 00:51:17;;;;;;;33.70;23.52;;;8.50;99.90;;;;;;5047459;28;20105;-38
2022/03/29 00:53:43;;;;;;;34.90;25.20;;;8.50;99.90;;;;;;5044708;28;20598;-42
2022/03/29 00:56:09;;;;;;;33.05;24.70;;;8.50;99.90;;;;;;5044701;28;20451;-41
2022/03/29 00:58:41;;;;;;;38.63;26.50;;;8.50;99.90;;;;;;5044878;28;20037;-40
2022/03/29 01:01:09;;;;;;;33.10;24.70;;;8.50;99.90;;;;;;5044971;28;20029;-42
2022/03/29 01:03:35;;;;;;;32.55;24.40;;;8.60;99.90;;;;;;5045175;28;20033;-42
2022/03/29 01:06:00;;;;;;;29.30;23.15;;;8.60;99.90;;;;;;5043744;28;20106;-43
2022/03/29 01:08:27;;;;;;;36.05;26.13;;;8.60;99.90;;;;;;5044445;28;20056;-43
2022/03/29 01:10:53;;;;;;;36.65;26.83;;;8.60;99.90;;;;;;5043759;28;20166;-42
2022/03/29 01:13:19;;;;;;;35.88;25.45;;;8.60;99.90;;;;;;5043733;28;20056;-42
2022/03/29 01:15:46;;;;;;;37.50;27.00;;;8.50;99.90;;;;;;5044033;28;20048;-41
2022/03/29 01:18:13;;;;;;;41.00;27.45;;;8.50;99.90;;;;;;5044367;28;20033;-41
2022/03/29 01:20:41;;;;;;;36.75;26.73;;;8.50;99.90;;;;;;5043824;28;20025;-41
2022/03/29 01:23:08;;;;;;;42.03;27.38;;;8.50;99.90;;;;;;5044459;28;20114;-42
2022/03/29 01:25:37;;;;;;;33.28;25.05;;;8.40;99.90;;;;;;5043476;28;20128;-41
2022/03/29 01:28:06;;;;;;;39.05;26.75;;;8.40;99.90;;;;;;5044662;28;20364;-42
2022/03/29 01:30:32;;;;;;;38.72;27.17;;;8.40;99.90;;;;;;5044680;28;20029;-42
2022/03/29 01:33:00;;;;;;;38.17;27.40;;;8.30;99.90;;;;;;5042565;28;20017;-40
2022/03/29 01:35:26;;;;;;;38.88;28.30;;;8.30;99.90;;;;;;5046379;28;20032;-42
2022/03/29 01:37:53;;;;;;;39.65;26.70;;;8.30;99.90;;;;;;5047580;28;20136;-43
2022/03/29 01:40:22;;;;;;;36.83;26.70;;;8.30;99.90;;;;;;5046741;28;20068;-41
2022/03/29 01:42:50;;;;;;;36.03;26.77;;;8.30;99.90;;;;;;5046762;28;20066;-42
2022/03/29 01:45:16;;;;;;;34.40;25.20;;;8.30;99.90;;;;;;5048130;28;20025;-42
2022/03/29 01:47:42;;;;;;;38.55;27.50;;;8.30;99.90;;;;;;5045098;28;20400;-42
2022/03/29 01:50:10;;;;;;;41.80;27.00;;;8.20;99.90;;;;;;5047751;28;20132;-40
2022/03/29 01:52:45;;;;;;;37.88;26.58;;;8.20;99.90;;;;;;5047557;28;20480;-42
2022/03/29 01:55:12;;;;;;;39.63;27.88;;;8.20;99.90;;;;;;5046687;28;20092;-42
2022/03/29 01:57:38;;;;;;;33.90;25.88;;;8.20;99.90;;;;;;5047276;28;20032;-42
2022/03/29 02:02:50;;;;;;;33.47;24.70;;;8.10;99.90;;;;;;5046879;28;20040;-42
2022/03/29 02:05:18;;;;;;;38.58;26.55;;;8.10;99.90;;;;;;5047734;28;20033;-41
2022/03/29 02:07:43;;;;;;;48.70;29.27;;;8.00;99.90;;;;;;5046446;28;20106;-44
2022/03/29 02:10:09;;;;;;;37.58;27.98;;;8.00;99.90;;;;;;5047782;28;20519;-42
2022/03/29 02:12:34;;;;;;;36.53;26.42;;;8.00;99.90;;;;;;5047503;28;20041;-42
2022/03/29 02:15:00;;;;;;;35.85;26.17;;;8.00;99.90;;;;;;5046571;28;20102;-43
2022/03/29 02:17:26;;;;;;;36.22;25.98;;;8.00;99.90;;;;;;5047246;28;20029;-42
2022/03/29 02:19:52;;;;;;;34.03;25.83;;;8.00;99.90;;;;;;5046466;28;20152;-42
2022/03/29 02:22:17;;;;;;;32.42;24.15;;;8.00;99.90;;;;;;5046670;28;20064;-43
2022/03/29 02:24:43;;;;;;;33.83;24.83;;;8.00;99.90;;;;;;5046768;28;20040;-44
2022/03/29 02:27:09;;;;;;;33.92;25.65;;;8.00;99.90;;;;;;5047195;28;20453;-42
2022/03/29 02:29:35;;;;;;;37.53;25.88;;;8.10;99.90;;;;;;5046304;28;20036;-42
2022/03/29 02:32:01;;;;;;;34.83;24.92;;;8.10;99.90;;;;;;5046436;28;20102;-42
2022/03/29 02:34:26;;;;;;;33.80;25.58;;;8.00;99.90;;;;;;5046822;28;20036;-40
2022/03/29 02:36:55;;;;;;;32.17;24.85;;;8.00;99.90;;;;;;5046290;28;20451;-44
2022/03/29 02:39:20;;;;;;;31.73;23.27;;;8.00;99.90;;;;;;5047135;28;20039;-42
2022/03/29 02:41:46;;;;;;;35.63;26.17;;;8.00;99.90;;;;;;5046354;28;20041;-43
2022/03/29 02:44:12;;;;;;;34.60;25.30;;;8.00;99.90;;;;;;5045651;28;20067;-43
2022/03/29 02:46:40;;;;;;;51.92;26.63;;;8.00;99.90;;;;;;5046679;28;20033;-42
2022/03/29 02:49:06;;;;;;;37.10;26.58;;;8.00;99.90;;;;;;5046325;28;20024;-42
2022/03/29 02:51:35;;;;;;;37.90;27.58;;;8.00;99.90;;;;;;5045979;28;20087;-43
2022/03/29 02:54:03;;;;;;;36.20;26.35;;;7.90;99.90;;;;;;5045954;28;20385;-42
2022/03/29 02:56:29;;;;;;;37.90;27.23;;;7.90;99.90;;;;;;5046321;28;20029;-42
2022/03/29 02:58:55;;;;;;;32.03;23.38;;;7.90;99.90;;;;;;5045309;28;20681;-42
2022/03/29 03:01:20;;;;;;;32.28;23.30;;;7.90;99.90;;;;;;5046841;28;20076;-43
2022/03/29 03:03:46;;;;;;;32.58;23.67;;;7.90;99.90;;;;;;5044887;28;20548;-42
2022/03/29 03:06:11;;;;;;;33.42;23.88;;;7.90;99.90;;;;;;5046681;28;20043;-43
2022/03/29 03:08:37;;;;;;;35.10;24.80;;;7.90;99.90;;;;;;5046427;28;20036;-40
2022/03/29 03:11:03;;;;;;;37.35;25.13;;;7.90;99.90;;;;;;5045213;28;20937;-42
2022/03/29 03:13:29;;;;;;;33.65;25.15;;;7.90;99.90;;;;;;5046030;28;20033;-42
2022/03/29 03:15:54;;;;;;;38.03;26.70;;;7.90;99.90;;;;;;5045532;28;20024;-42
2022/03/29 03:18:20;;;;;;;35.03;25.70;;;8.00;99.90;;;;;;5045893;28;20078;-42
2022/03/29 03:20:45;;;;;;;33.97;23.67;;;8.00;99.90;;;;;;5045214;28;20044;-42
2022/03/29 03:23:11;;;;;;;33.15;23.33;;;8.00;99.90;;;;;;5046390;28;20052;-40
2022/03/29 03:25:39;;;;;;;32.15;22.90;;;8.00;99.90;;;;;;5044821;28;20079;-41
2022/03/29 03:28:05;;;;;;;37.03;24.48;;;8.00;99.90;;;;;;5045312;28;20393;-42
2022/03/29 03:30:31;;;;;;;37.35;24.15;;;8.00;99.90;;;;;;5046245;28;20037;-41
2022/03/29 03:32:59;;;;;;;33.53;24.13;;;7.90;99.90;;;;;;5044588;28;20087;-40
2022/03/29 03:35:24;;;;;;;39.53;24.38;;;7.90;99.90;;;;;;5045708;28;20063;-41
2022/03/29 03:37:51;;;;;;;40.08;25.15;;;7.80;99.90;;;;;;5045568;28;20108;-41
2022/03/29 03:40:19;;;;;;;34.05;24.88;;;7.80;99.90;;;;;;5045192;28;20036;-41
2022/03/29 03:42:45;;;;;;;32.90;23.38;;;7.80;99.90;;;;;;5045194;28;20090;-43
2022/03/29 03:45:11;;;;;;;39.90;23.98;;;7.80;99.90;;;;;;5045738;28;20048;-41
2022/03/29 03:47:36;;;;;;;32.35;23.35;;;7.80;99.90;;;;;;5045088;28;20599;-42
2022/03/29 03:50:04;;;;;;;34.28;25.58;;;7.70;99.90;;;;;;5044775;28;20064;-41
2022/03/29 03:52:29;;;;;;;31.52;23.13;;;7.70;99.90;;;;;;5045705;28;20029;-42
2022/03/29 03:54:56;;;;;;;37.92;22.52;;;7.70;99.90;;;;;;5044041;28;20098;-41
2022/03/29 03:57:22;;;;;;;42.85;22.67;;;7.70;99.90;;;;;;5045143;28;20052;-42
2022/03/29 03:59:48;;;;;;;28.85;20.15;;;7.60;99.90;;;;;;5045074;28;20025;-43
2022/03/29 04:02:14;;;;;;;27.50;20.10;;;7.60;99.90;;;;;;5045599;28;20052;-42
2022/03/29 04:04:40;;;;;;;31.67;22.65;;;7.60;99.90;;;;;;5045313;28;20326;-42
2022/03/29 04:07:06;;;;;;;32.15;23.27;;;7.60;99.90;;;;;;5045086;28;20025;-40
2022/03/29 04:09:35;;;;;;;40.40;23.90;;;7.70;99.90;;;;;;5045501;28;20506;-40
2022/03/29 04:12:04;;;;;;;34.63;23.48;;;7.70;99.90;;;;;;5044653;28;20396;-41
2022/03/29 04:14:30;;;;;;;33.88;23.40;;;7.60;99.90;;;;;;5025021;28;20510;-41
2022/03/29 04:16:55;;;;;;;36.67;22.40;;;7.60;99.90;;;;;;5039081;28;20520;-41
2022/03/29 04:19:21;;;;;;;29.50;21.58;;;7.60;99.90;;;;;;5045490;28;20021;-37
2022/03/29 04:21:46;;;;;;;30.13;22.27;;;7.60;99.90;;;;;;5043739;28;20751;-41
2022/03/29 04:24:12;;;;;;;29.90;21.55;;;7.60;99.90;;;;;;5045113;28;20033;-43
2022/03/29 04:26:38;;;;;;;30.35;22.10;;;7.70;99.90;;;;;;5045093;28;20078;-43
2022/03/29 04:29:04;;;;;;;34.30;22.73;;;7.70;99.90;;;;;;5044074;28;20024;-42
2022/03/29 04:31:29;;;;;;;31.58;23.75;;;7.70;99.90;;;;;;5045184;28;20029;-42
2022/03/29 04:33:55;;;;;;;33.97;23.23;;;7.70;99.90;;;;;;5044195;28;20116;-43
2022/03/29 04:36:20;;;;;;;31.75;23.23;;;7.70;99.90;;;;;;5043834;28;20024;-42
2022/03/29 04:38:46;;;;;;;33.95;21.20;;;7.70;99.90;;;;;;5044485;28;20033;-40
2022/03/29 04:41:12;;;;;;;27.73;20.85;;;7.70;99.90;;;;;;5044701;28;20473;-41
2022/03/29 04:43:37;;;;;;;27.77;20.83;;;7.70;99.90;;;;;;5044155;28;20487;-42
2022/03/29 04:46:03;;;;;;;34.08;21.98;;;7.70;99.90;;;;;;5044335;28;20461;-42
2022/03/29 04:48:29;;;;;;;30.55;21.67;;;7.70;99.90;;;;;;5044362;28;20090;-42
2022/03/29 04:50:55;;;;;;;30.23;21.45;;;7.70;99.90;;;;;;5043804;28;20022;-43
2022/03/29 04:53:20;;;;;;;31.67;21.05;;;7.70;99.90;;;;;;5044774;28;20412;-40
2022/03/29 04:55:46;;;;;;;28.80;20.85;;;7.70;99.90;;;;;;5044108;28;20128;-40
2022/03/29 04:58:11;;;;;;;31.83;22.70;;;7.70;99.90;;;;;;5043896;28;20112;-44
2022/03/29 05:00:37;;;;;;;31.80;20.63;;;7.70;99.90;;;;;;5045095;28;20025;-42
2022/03/29 05:03:03;;;;;;;28.52;20.70;;;7.70;99.90;;;;;;5044117;28;20068;-41
2022/03/29 05:05:29;;;;;;;30.52;21.38;;;7.70;99.90;;;;;;5044053;28;20024;-43
2022/03/29 05:07:54;;;;;;;30.67;22.02;;;7.70;99.90;;;;;;5044337;28;20028;-43
2022/03/29 05:10:20;;;;;;;28.98;20.30;;;7.70;99.90;;;;;;5045846;28;20556;-43
2022/03/29 05:12:48;;;;;;;33.60;21.70;;;7.70;99.90;;;;;;5047978;28;20017;-41
2022/03/29 05:15:19;;;;;;;33.80;22.55;;;7.70;99.90;;;;;;5048124;28;20028;-42
2022/03/29 05:17:45;;;;;;;33.03;23.25;;;7.70;99.90;;;;;;5047099;28;20033;-43
2022/03/29 05:20:12;;;;;;;34.08;22.00;;;7.70;99.90;;;;;;5048658;28;20032;-41
2022/03/29 05:22:43;;;;;;;35.22;24.60;;;7.70;99.90;;;;;;5048120;28;20044;-42
2022/03/29 05:25:08;;;;;;;32.97;22.20;;;7.70;99.90;;;;;;5044225;28;20087;-41
2022/03/29 05:27:34;;;;;;;33.85;23.90;;;7.70;99.90;;;;;;5048423;28;20497;-42
2022/03/29 05:29:59;;;;;;;34.33;24.08;;;7.70;99.90;;;;;;5047344;28;20017;-40
2022/03/29 05:32:28;;;;;;;29.83;21.48;;;7.60;99.90;;;;;;5047763;28;20017;-41
2022/03/29 05:34:53;;;;;;;29.60;21.35;;;7.60;99.90;;;;;;5047424;28;20021;-42
2022/03/29 05:37:19;;;;;;;32.22;22.23;;;7.60;99.90;;;;;;5047886;28;20039;-39
2022/03/29 05:39:44;;;;;;;33.00;22.10;;;7.60;99.90;;;;;;5046729;28;20049;-42
2022/03/29 05:42:10;;;;;;;43.95;23.77;;;7.60;99.90;;;;;;5048114;28;20496;-42
2022/03/29 05:44:37;;;;;;;33.67;23.33;;;7.70;99.90;;;;;;5047858;28;20147;-42
2022/03/29 05:49:51;;;;;;;29.42;20.35;;;7.60;99.90;;;;;;5047373;28;20047;-41
2022/03/29 05:52:17;;;;;;;30.48;19.95;;;7.60;99.90;;;;;;5047895;28;20028;-42
2022/03/29 05:54:45;;;;;;;27.88;20.10;;;7.60;99.90;;;;;;5046417;28;20048;-41
2022/03/29 05:57:12;;;;;;;34.20;22.08;;;7.60;99.90;;;;;;5047983;28;20041;-42
2022/03/29 05:59:38;;;;;;;33.42;22.30;;;7.60;99.90;;;;;;5046771;28;20147;-42
2022/03/29 06:02:04;;;;;;;37.83;22.83;;;7.60;99.90;;;;;;5047248;28;20123;-41
2022/03/29 06:04:31;;;;;;;32.35;22.60;;;7.70;99.90;;;;;;5047452;28;20104;-39
2022/03/29 06:06:56;;;;;;;39.53;23.92;;;7.70;99.90;;;;;;5046456;28;20114;-40
2022/03/29 06:09:22;;;;;;;33.22;22.83;;;7.70;99.90;;;;;;5047182;28;20025;-40
2022/03/29 06:11:48;;;;;;;34.50;23.17;;;7.70;99.90;;;;;;5046271;28;20021;-41
2022/03/29 06:14:14;;;;;;;35.47;23.85;;;7.70;99.90;;;;;;5047537;28;20469;-41
2022/03/29 06:16:41;;;;;;;33.95;22.92;;;7.70;99.90;;;;;;5047799;28;20031;-40
2022/03/29 06:19:08;;;;;;;36.50;23.52;;;7.70;99.90;;;;;;5047864;28;20021;-42
2022/03/29 06:21:38;;;;;;;44.58;24.08;;;7.70;99.90;;;;;;5045361;28;20021;-42
2022/03/29 06:24:11;;;;;;;39.78;24.33;;;7.70;99.90;;;;;;5046206;28;20033;-42
2022/03/29 06:26:38;;;;;;;40.70;25.13;;;7.70;99.90;;;;;;5047148;28;20024;-42
2022/03/29 06:29:08;;;;;;;41.03;25.95;;;7.70;99.90;;;;;;5046449;28;20017;-42
2022/03/29 06:31:34;;;;;;;32.65;22.58;;;7.70;99.90;;;;;;5046638;28;20132;-40
2022/03/29 06:34:00;;;;;;;46.78;27.50;;;7.70;99.90;;;;;;5046726;28;20029;-43
2022/03/29 06:36:26;;;;;;;42.25;27.02;;;7.70;99.90;;;;;;5046742;28;20665;-42
2022/03/29 06:38:55;;;;;;;42.25;25.67;;;7.80;99.90;;;;;;5046456;28;20029;-42
2022/03/29 06:41:21;;;;;;;38.35;25.25;;;7.80;99.90;;;;;;5046966;28;20111;-41
2022/03/29 06:43:49;;;;;;;43.78;27.23;;;7.80;99.90;;;;;;5045230;28;20151;-43
2022/03/29 06:46:15;;;;;;;48.78;28.05;;;7.80;99.90;;;;;;5040731;28;21214;-42
2022/03/29 06:48:41;;;;;;;49.67;30.50;;;7.80;99.90;;;;;;5043727;28;20773;-43
2022/03/29 06:51:12;;;;;;;45.60;28.08;;;7.80;99.90;;;;;;5045754;28;20021;-43
2022/03/29 06:53:41;;;;;;;41.40;27.58;;;7.80;99.90;;;;;;5044721;28;20049;-43
2022/03/29 06:56:07;;;;;;;42.10;27.42;;;7.80;99.90;;;;;;5042922;28;20556;-43
2022/03/29 06:58:34;;;;;;;48.22;28.95;;;7.70;99.90;;;;;;5044911;28;20048;-42
2022/03/29 07:00:59;;;;;;;43.13;27.33;;;7.70;99.90;;;;;;5045947;28;20039;-43
2022/03/29 07:03:25;;;;;;;47.00;28.58;;;7.70;99.90;;;;;;5045699;28;20025;-42
2022/03/29 07:05:51;;;;;;;41.72;26.20;;;7.70;99.90;;;;;;5046478;28;20039;-41
2022/03/29 07:08:20;;;;;;;38.22;24.58;;;7.70;99.90;;;;;;5046185;28;20579;-41
2022/03/29 07:13:30;;;;;;;45.58;24.05;;;7.70;99.90;;;;;;5045988;28;20500;-42
2022/03/29 07:15:56;;;;;;;38.78;24.92;;;7.70;99.90;;;;;;5046111;28;20029;-42
2022/03/29 07:18:27;;;;;;;36.42;22.92;;;7.70;99.90;;;;;;5044955;28;20577;-41
2022/03/29 07:20:53;;;;;;;37.13;24.30;;;7.70;99.90;;;;;;5046182;28;20062;-41
2022/03/29 07:23:19;;;;;;;41.35;24.95;;;7.70;99.90;;;;;;5045507;28;20098;-43
2022/03/29 07:25:44;;;;;;;39.80;25.73;;;7.70;99.90;;;;;;5044587;28;20114;-43
2022/03/29 07:28:11;;;;;;;42.20;25.88;;;7.70;99.90;;;;;;5046112;28;20017;-43
2022/03/29 07:30:40;;;;;;;37.58;24.90;;;7.70;99.90;;;;;;5045783;28;20029;-43
2022/03/29 07:33:07;;;;;;;38.47;24.38;;;7.80;99.90;;;;;;5043668;28;20028;-43
2022/03/29 07:35:34;;;;;;;36.92;23.80;;;7.80;99.90;;;;;;5046839;28;20382;-43
2022/03/29 07:38:00;;;;;;;36.22;24.05;;;7.80;99.90;;;;;;5045537;28;20021;-42
2022/03/29 07:40:28;;;;;;;38.95;25.25;;;7.80;99.90;;;;;;5046805;28;20029;-42
2022/03/29 07:42:54;;;;;;;41.05;25.80;;;7.70;99.90;;;;;;5048457;28;20538;-43
2022/03/29 07:45:21;;;;;;;41.47;25.13;;;7.70;99.90;;;;;;5049481;28;20025;-42
2022/03/29 07:47:55;;;;;;;40.50;25.33;;;7.80;99.90;;;;;;5047972;28;20051;-41
2022/03/29 07:50:21;;;;;;;38.92;25.67;;;7.80;99.90;;;;;;5036590;28;20036;-41
2022/03/29 07:52:47;;;;;;;43.33;26.70;;;7.80;99.90;;;;;;5040456;28;20025;-43
2022/03/29 07:55:12;;;;;;;39.15;24.83;;;7.90;99.90;;;;;;5044519;28;20562;-41
2022/03/29 07:57:39;;;;;;;40.33;24.63;;;7.90;99.90;;;;;;5045360;28;20032;-43
2022/03/29 08:02:54;;;;;;;42.63;26.80;;;7.90;99.90;;;;;;5045322;28;20063;-42
2022/03/29 08:05:20;;;;;;;42.08;25.25;;;7.90;99.90;;;;;;5045163;28;20476;-42
2022/03/29 08:07:46;;;;;;;41.35;26.05;;;7.90;99.90;;;;;;5044216;28;20025;-39
2022/03/29 08:10:13;;;;;;;39.33;25.75;;;7.90;99.90;;;;;;5039921;28;20084;-42
2022/03/29 08:12:39;;;;;;;40.03;24.77;;;8.00;99.90;;;;;;5040078;28;20051;-43
2022/03/29 08:15:06;;;;;;;41.70;26.38;;;8.00;99.90;;;;;;5040880;28;20094;-42
2022/03/29 08:17:33;;;;;;;42.22;25.52;;;8.10;99.90;;;;;;5044786;28;20117;-41
2022/03/29 08:19:58;;;;;;;41.88;24.92;;;8.10;99.90;;;;;;5044329;28;20029;-42
2022/03/29 08:22:24;;;;;;;39.58;24.90;;;8.10;99.90;;;;;;5040889;28;20035;-41
2022/03/29 08:24:52;;;;;;;46.60;28.08;;;8.10;99.90;;;;;;5043484;28;20094;-40
2022/03/29 08:27:18;;;;;;;43.00;26.08;;;8.20;99.90;;;;;;5043880;28;20025;-42
2022/03/29 08:29:44;;;;;;;39.92;25.05;;;8.20;99.90;;;;;;5044145;28;20041;-42
2022/03/29 08:32:10;;;;;;;43.63;26.73;;;8.30;99.90;;;;;;5045266;28;20044;-43
2022/03/29 08:34:35;;;;;;;45.75;28.38;;;8.40;99.90;;;;;;5040182;28;20292;-42
2022/03/29 08:37:01;;;;;;;45.20;27.35;;;8.40;99.90;;;;;;5044224;28;20021;-43
2022/03/29 08:39:26;;;;;;;42.35;26.17;;;8.50;99.90;;;;;;5043821;28;20131;-41
2022/03/29 08:42:03;;;;;;;46.03;28.77;;;8.50;99.90;;;;;;5043490;28;20047;-42
2022/03/29 08:44:31;;;;;;;49.38;29.38;;;8.60;99.90;;;;;;5045052;28;20039;-42
2022/03/29 08:46:57;;;;;;;44.58;28.15;;;8.60;99.90;;;;;;5048386;28;20021;-42
2022/03/29 08:49:23;;;;;;;47.47;29.50;;;8.60;99.90;;;;;;5048281;28;20037;-44
2022/03/29 08:51:49;;;;;;;46.90;27.95;;;8.60;99.90;;;;;;5047980;28;20388;-40
2022/03/29 08:54:15;;;;;;;46.53;29.02;;;8.60;99.90;;;;;;5046549;28;20041;-43
2022/03/29 08:56:40;;;;;;;48.70;28.70;;;8.70;99.90;;;;;;5048113;28;20032;-43
2022/03/29 08:59:06;;;;;;;45.60;28.02;;;8.70;99.90;;;;;;5048678;28;20037;-41
2022/03/29 09:01:32;;;;;;;47.13;29.23;;;8.70;99.90;;;;;;5048432;28;20025;-41
2022/03/29 09:04:09;;;;;;;51.28;30.20;;;8.80;99.90;;;;;;5043982;28;20134;-42
2022/03/29 09:06:59;;;;;;;50.95;30.25;;;8.90;99.90;;;;;;5038440;28;20415;-42
2022/03/29 09:09:27;;;;;;;57.30;31.05;;;8.90;99.90;;;;;;5039752;28;20068;-42
2022/03/29 09:11:55;;;;;;;48.80;29.80;;;8.90;99.90;;;;;;5046548;28;20051;-41
2022/03/29 09:14:24;;;;;;;49.45;30.40;;;8.80;99.90;;;;;;5049230;28;20424;-43
2022/03/29 09:16:51;;;;;;;50.17;30.42;;;8.90;99.90;;;;;;5046658;28;20059;-43
2022/03/29 09:19:25;;;;;;;49.72;29.52;;;9.00;99.90;;;;;;5048671;28;20025;-43
2022/03/29 09:21:59;;;;;;;46.58;29.52;;;9.10;99.90;;;;;;5048419;28;20029;-43
2022/03/29 09:24:25;;;;;;;48.03;29.30;;;9.30;99.90;;;;;;5048087;28;20033;-42
2022/03/29 09:26:54;;;;;;;49.08;28.20;;;9.40;99.90;;;;;;5047719;28;20020;-42
2022/03/29 09:29:22;;;;;;;50.03;30.77;;;9.50;99.90;;;;;;5049503;28;20105;-41
2022/03/29 09:32:12;;;;;;;48.35;29.92;;;9.60;99.90;;;;;;5045467;28;20388;-42
2022/03/29 09:34:38;;;;;;;53.47;31.15;;;9.60;99.90;;;;;;5046921;28;20040;-42
2022/03/29 09:37:04;;;;;;;51.35;32.47;;;9.50;99.90;;;;;;5046088;28;20075;-42
2022/03/29 09:39:30;;;;;;;55.42;31.83;;;9.60;99.90;;;;;;5046411;28;20037;-42
2022/03/29 09:42:00;;;;;;;54.17;32.13;;;9.50;99.90;;;;;;5046373;28;20735;-43
2022/03/29 09:44:45;;;;;;;50.70;31.23;;;9.50;99.90;;;;;;5047630;28;20071;-43
2022/03/29 09:47:20;;;;;;;49.33;31.02;;;9.60;99.90;;;;;;5048218;28;20025;-44
2022/03/29 09:49:57;;;;;;;50.28;30.50;;;9.70;99.90;;;;;;5047914;28;20036;-43
2022/03/29 09:52:31;;;;;;;46.38;28.23;;;9.70;99.90;;;;;;5046829;28;20467;-42
2022/03/29 09:55:16;;;;;;;50.15;31.02;;;9.70;99.90;;;;;;5043409;28;20052;-41
2022/03/29 09:57:44;;;;;;;53.45;30.75;;;9.80;99.90;;;;;;5047071;28;20037;-43
2022/03/29 10:00:12;;;;;;;44.75;29.55;;;9.90;99.90;;;;;;5043481;28;20068;-44
2022/03/29 10:02:40;;;;;;;43.65;27.85;;;9.90;99.90;;;;;;5047156;28;20029;-43
2022/03/29 10:05:07;;;;;;;43.28;26.95;;;10.00;99.90;;;;;;5048530;28;20154;-42
2022/03/29 10:07:40;;;;;;;43.33;27.92;;;10.10;99.90;;;;;;5047093;28;20060;-43
2022/03/29 10:10:08;;;;;;;43.53;29.00;;;10.10;99.90;;;;;;5044595;28;20067;-42
2022/03/29 10:12:34;;;;;;;47.58;29.00;;;10.10;99.90;;;;;;5039622;28;20453;-42
2022/03/29 10:15:00;;;;;;;46.13;28.80;;;10.10;99.90;;;;;;5045911;28;20029;-40
2022/03/29 10:17:26;;;;;;;37.63;25.95;;;10.10;99.90;;;;;;5046298;28;20700;-41
2022/03/29 10:19:54;;;;;;;40.03;25.83;;;10.20;99.90;;;;;;5046488;28;20029;-43
2022/03/29 10:22:22;;;;;;;40.67;27.10;;;10.20;99.90;;;;;;5030421;28;20025;-42
2022/03/29 10:24:48;;;;;;;41.38;27.00;;;10.30;99.90;;;;;;5038012;28;20040;-43
2022/03/29 10:27:16;;;;;;;45.15;27.13;;;10.30;99.90;;;;;;5041356;28;20027;-43
2022/03/29 10:29:42;;;;;;;40.33;26.42;;;10.30;99.90;;;;;;5045541;28;20087;-42
2022/03/29 10:32:10;;;;;;;43.15;27.38;;;10.30;99.90;;;;;;5046592;28;20106;-40
2022/03/29 10:34:39;;;;;;;38.85;25.92;;;10.40;99.90;;;;;;5046215;28;20158;-41
2022/03/29 10:37:08;;;;;;;36.00;24.08;;;10.50;99.90;;;;;;5047110;28;20033;-42
2022/03/29 10:40:04;;;;;;;38.03;24.98;;;10.70;99.90;;;;;;5046422;28;20025;-41
2022/03/29 10:42:49;;;;;;;37.70;24.17;;;10.80;99.90;;;;;;5037858;28;20029;-40
2022/03/29 10:45:24;;;;;;;36.28;24.02;;;11.00;99.90;;;;;;5047389;28;20040;-42
2022/03/29 10:48:04;;;;;;;38.13;25.13;;;11.10;99.90;;;;;;5046678;28;20031;-41
2022/03/29 10:50:53;;;;;;;42.63;25.83;;;11.10;99.90;;;;;;5047438;28;20503;-43
2022/03/29 10:53:32;;;;;;;42.25;27.48;;;11.20;99.90;;;;;;5047314;28;20028;-41
2022/03/29 10:56:11;;;;;;;38.53;24.63;;;11.20;99.90;;;;;;5044938;28;20119;-42
2022/03/29 10:58:56;;;;;;;36.05;24.25;;;11.20;99.90;;;;;;5047606;28;20033;-42
2022/03/29 11:01:22;;;;;;;35.35;23.20;;;11.30;99.90;;;;;;5047816;28;20025;-43
2022/03/29 11:04:07;;;;;;;35.83;23.50;;;11.20;99.90;;;;;;5046226;28;20025;-42
2022/03/29 11:06:35;;;;;;;40.25;25.75;;;11.20;99.90;;;;;;5046665;28;20028;-42
2022/03/29 11:09:09;;;;;;;41.80;26.27;;;11.30;99.90;;;;;;5046367;28;20531;-42
2022/03/29 11:11:50;;;;;;;38.97;24.75;;;11.30;99.90;;;;;;5047169;28;20031;-43
2022/03/29 11:14:38;;;;;;;39.00;25.98;;;11.30;99.90;;;;;;5047288;28;20047;-43
2022/03/29 11:17:09;;;;;;;37.33;24.40;;;11.30;99.90;;;;;;5043601;28;20029;-43
2022/03/29 11:19:53;;;;;;;38.13;24.40;;;11.40;99.90;;;;;;5039752;28;20476;-41
2022/03/29 11:22:21;;;;;;;36.22;23.83;;;11.40;99.90;;;;;;5045378;28;20103;-40
2022/03/29 11:24:55;;;;;;;33.58;22.23;;;11.50;99.90;;;;;;5038378;28;20099;-43
2022/03/29 11:27:28;;;;;;;34.47;23.55;;;11.50;99.90;;;;;;5044620;28;20389;-43
2022/03/29 11:29:55;;;;;;;32.85;22.75;;;11.60;99.90;;;;;;5043119;28;20029;-41
2022/03/29 11:32:21;;;;;;;37.33;24.83;;;11.70;99.90;;;;;;5045466;28;20464;-42
2022/03/29 11:34:51;;;;;;;38.97;25.55;;;11.70;99.90;;;;;;5046474;28;20071;-44
2022/03/29 11:37:27;;;;;;;37.17;24.27;;;11.80;99.90;;;;;;5045524;28;20119;-43
2022/03/29 11:39:53;;;;;;;34.53;24.27;;;11.80;99.90;;;;;;5046581;28;20028;-42
2022/03/29 11:42:18;;;;;;;34.28;22.88;;;11.90;99.90;;;;;;5045849;28;20063;-42
2022/03/29 11:44:51;;;;;;;36.15;24.40;;;11.90;99.90;;;;;;5045167;28;20124;-42
2022/03/29 11:47:17;;;;;;;38.10;25.20;;;11.90;99.90;;;;;;5045729;28;20574;-42
2022/03/29 11:49:45;;;;;;;36.08;24.70;;;12.00;99.90;;;;;;5046721;28;20025;-42
2022/03/29 11:52:13;;;;;;;35.05;24.45;;;12.00;99.90;;;;;;5045756;28;20025;-41
2022/03/29 11:54:44;;;;;;;33.75;23.60;;;12.00;99.90;;;;;;5042067;28;20599;-43
2022/03/29 11:57:30;;;;;;;32.92;22.70;;;12.10;99.90;;;;;;5045746;28;20041;-42
2022/03/29 11:59:58;;;;;;;32.95;22.88;;;12.10;99.90;;;;;;5045211;28;20063;-42
2022/03/29 12:02:27;;;;;;;32.95;23.45;;;12.20;99.90;;;;;;5046284;28;20017;-42
2022/03/29 12:04:54;;;;;;;33.95;24.42;;;12.20;99.90;;;;;;5046216;28;20074;-41
2022/03/29 12:07:36;;;;;;;33.40;22.80;;;12.20;99.90;;;;;;5045007;28;20021;-42
2022/03/29 12:10:02;;;;;;;34.05;23.48;;;12.30;99.90;;;;;;5045887;28;20033;-42
2022/03/29 12:12:27;;;;;;;33.08;23.33;;;12.30;99.90;;;;;;5045397;28;20039;-42
2022/03/29 12:15:07;;;;;;;34.08;24.40;;;12.30;99.90;;;;;;5046290;28;20029;-40
2022/03/29 12:17:35;;;;;;;33.65;24.27;;;12.40;99.90;;;;;;5045630;28;20037;-41
2022/03/29 12:20:01;;;;;;;32.30;22.63;;;12.50;99.90;;;;;;5044542;28;20056;-42
2022/03/29 12:22:29;;;;;;;28.15;20.40;;;12.50;99.90;;;;;;5045177;28;20021;-43
2022/03/29 12:24:57;;;;;;;34.00;22.92;;;12.60;99.90;;;;;;5044897;28;20033;-42
2022/03/29 12:27:23;;;;;;;32.25;22.55;;;12.60;99.90;;;;;;5041578;28;20067;-41
2022/03/29 12:29:55;;;;;;;33.67;22.45;;;12.70;99.90;;;;;;5043613;28;20111;-43
2022/03/29 12:32:21;;;;;;;32.27;23.37;;;12.80;99.90;;;;;;5045489;28;20369;-43
2022/03/29 12:35:03;;;;;;;31.15;23.52;;;12.80;99.90;;;;;;5038506;28;20036;-43
2022/03/29 12:37:29;;;;;;;31.65;23.80;;;12.90;99.90;;;;;;5039166;28;20024;-43
2022/03/29 12:40:04;;;;;;;36.70;25.25;;;13.00;99.90;;;;;;5039819;28;20074;-42
2022/03/29 12:42:32;;;;;;;31.35;23.15;;;13.00;99.90;;;;;;5043812;28;20528;-43
2022/03/29 12:45:00;;;;;;;32.72;23.77;;;13.10;99.90;;;;;;5044712;28;20025;-42
2022/03/29 12:47:31;;;;;;;32.75;24.60;;;13.20;99.90;;;;;;5044242;28;20690;-40
2022/03/29 12:49:57;;;;;;;29.27;22.30;;;13.20;99.90;;;;;;5041092;28;20021;-42